This is the latest recevied weather packets stored in our database for station/object LRTR. If no packets are shown the sender has not sent any weather packets the latest 10 day(s).
| Time | Temp. | Humidity | Pressure | Rain* | Wind** | Luminosity | Snow |
|---|---|---|---|---|---|---|---|
| 1777868285 | 2.78° C | 87% | 1020 hPa | - | - | - | - |
| 1777867385 | 2.78° C | 87% | 1020 hPa | - | - | - | - |
| 1777866485 | 2.78° C | 87% | 1020 hPa | - | - | - | - |
| 1777865585 | 2.78° C | 87% | 1020 hPa | - | - | - | - |
| 1777864685 | 3.89° C | 87% | 1019 hPa | - | - | - | - |
| 1777863860 | 3.89° C | 87% | 1019 hPa | - | - | - | - |
| 1777862886 | 2.22° C | 93% | 1019 hPa | - | - | - | - |
| 1777861985 | 2.22° C | 93% | 1019 hPa | - | - | - | - |
| 1777861084 | 2.78° C | 87% | 1020 hPa | - | - | - | - |
| 1777860185 | 2.78° C | 87% | 1020 hPa | - | - | - | - |
| 1777859285 | 2.22° C | 93% | 1019 hPa | - | - | - | - |
| 1777858390 | 2.22° C | 93% | 1019 hPa | - | - | - | - |
| 1777857559 | 3.89° C | 87% | 1019 hPa | - | - | - | - |
| 1777856585 | 3.89° C | 87% | 1019 hPa | - | - | - | - |
| 1777855760 | 2.78° C | 93% | 1019 hPa | - | - | - | - |
| 1777854785 | 2.78° C | 93% | 1019 hPa | - | - | - | - |
| 1777853885 | 2.78° C | 93% | 1020 hPa | - | - | - | - |
| 1777852985 | 2.78° C | 93% | 1020 hPa | - | - | - | - |
| 1777852124 | 3.89° C | 87% | 1019 hPa | - | - | - | - |
| 1777851185 | 3.89° C | 87% | 1019 hPa | - | - | - | - |
| 1777850289 | 7.22° C | 76% | 1019 hPa | - | - | - | - |
| 1777849397 | 7.22° C | 76% | 1019 hPa | - | - | - | - |
| 1777848485 | 8.89° C | 62% | 1019 hPa | - | - | - | - |
| 1777847597 | 8.89° C | 62% | 1019 hPa | - | - | - | - |
| 1777846702 | 7.78° C | 66% | 1019 hPa | - | - | - | - |
* Rain since midnight (hover to see other rain measurements)
** Current wind speed in m/s (hover to see current wind gust speed)